createdAt,value
2023-01-07T00:01:48.139Z,101161.72
2023-01-07T00:04:52.514Z,101167.16
2023-01-07T00:07:59.203Z,101173.19
2023-01-07T00:11:02.692Z,101171.66
2023-01-07T00:14:08.292Z,101171.16
2023-01-07T00:17:11.262Z,101153.19
2023-01-07T00:20:15.964Z,101154.88
2023-01-07T00:23:18.985Z,101147.91
2023-01-07T00:26:23.780Z,101150.63
2023-01-07T00:29:27.344Z,101153.47
2023-01-07T00:32:50.885Z,101149.00
2023-01-07T00:36:01.560Z,101144.91
2023-01-07T00:39:07.461Z,101154.56
2023-01-07T00:42:28.734Z,101167.78
2023-01-07T00:45:34.109Z,101157.25
2023-01-07T00:48:37.164Z,101150.22
2023-01-07T00:51:41.664Z,101157.34
2023-01-07T00:54:47.798Z,101167.03
2023-01-07T00:57:54.614Z,101157.59
2023-01-07T01:01:00.233Z,101156.31
2023-01-07T01:04:03.412Z,101151.34
2023-01-07T01:07:07.806Z,101154.00
2023-01-07T01:10:14.777Z,101160.38
2023-01-07T01:13:21.657Z,101164.81
2023-01-07T01:16:24.838Z,101161.34
2023-01-07T01:19:27.825Z,101158.22
2023-01-07T01:22:32.419Z,101159.22
2023-01-07T01:25:35.853Z,101166.16
2023-01-07T01:28:39.862Z,101170.31
2023-01-07T01:31:44.124Z,101172.03
2023-01-07T01:34:47.345Z,101170.38
2023-01-07T01:37:51.787Z,101165.47
2023-01-07T01:40:55.268Z,101160.69
2023-01-07T01:43:59.074Z,101160.16
2023-01-07T01:47:05.580Z,101155.06
2023-01-07T01:50:14.966Z,101149.81
2023-01-07T01:53:23.739Z,101154.22
2023-01-07T01:56:30.942Z,101144.16
2023-01-07T01:59:39.029Z,101148.34
2023-01-07T02:02:48.951Z,101139.09
2023-01-07T02:05:53.104Z,101139.91
2023-01-07T02:08:57.567Z,101131.34
2023-01-07T02:12:15.471Z,101140.91
2023-01-07T02:15:28.919Z,101136.75
2023-01-07T02:18:50.950Z,101136.88
2023-01-07T02:22:02.667Z,101141.34
2023-01-07T02:25:42.026Z,101142.69
2023-01-07T02:29:33.837Z,101130.69
2023-01-07T02:33:15.150Z,101125.53
2023-01-07T02:36:34.779Z,101126.16
2023-01-07T02:39:53.134Z,101122.03
2023-01-07T02:43:08.262Z,101117.72
2023-01-07T02:46:22.375Z,101108.41
2023-01-07T02:49:26.805Z,101107.69
2023-01-07T02:52:33.786Z,101111.72
2023-01-07T02:55:47.257Z,101110.88
2023-01-07T02:59:23.612Z,101106.47
2023-01-07T03:02:53.606Z,101102.28
2023-01-07T03:06:19.194Z,101113.63
2023-01-07T03:09:30.401Z,101105.34
2023-01-07T03:12:37.143Z,101104.69
2023-01-07T03:15:44.429Z,101105.59
2023-01-07T03:18:52.413Z,101106.75
2023-01-07T03:21:59.436Z,101102.34
2023-01-07T03:25:06.213Z,101105.00
2023-01-07T03:28:15.960Z,101111.22
2023-01-07T03:31:21.780Z,101097.31
2023-01-07T03:34:28.979Z,101111.72
2023-01-07T03:37:35.249Z,101106.59
2023-01-07T03:40:39.166Z,101103.91
2023-01-07T03:43:44.907Z,101105.47
2023-01-07T03:46:48.425Z,101104.56
2023-01-07T03:49:51.577Z,101099.41
2023-01-07T03:52:56.114Z,101102.66
2023-01-07T03:56:00.881Z,101094.66
2023-01-07T03:59:04.491Z,101086.84
2023-01-07T04:02:08.541Z,101083.91
2023-01-07T04:05:12.881Z,101070.94
2023-01-07T04:08:17.318Z,101058.16
2023-01-07T04:11:22.544Z,101059.94
2023-01-07T04:14:26.666Z,101056.47
2023-01-07T04:17:29.707Z,101056.03
2023-01-07T04:20:34.623Z,101049.63
2023-01-07T04:23:39.089Z,101055.03
2023-01-07T04:26:42.741Z,101054.75
2023-01-07T04:29:46.306Z,101039.31
2023-01-07T04:32:49.779Z,101045.38
2023-01-07T04:35:53.746Z,101042.78
2023-01-07T04:39:01.146Z,101045.34
2023-01-07T04:42:06.131Z,101045.34
2023-01-07T04:45:10.577Z,101052.22
2023-01-07T04:48:14.089Z,101047.06
2023-01-07T04:51:20.256Z,101047.06
2023-01-07T04:54:24.778Z,101043.50
2023-01-07T04:57:28.995Z,101035.44
2023-01-07T05:00:32.275Z,101041.63
2023-01-07T05:03:35.550Z,101035.44
2023-01-07T05:06:39.187Z,101029.00
2023-01-07T05:09:45.292Z,101027.81
2023-01-07T05:12:48.718Z,101029.09
2023-01-07T05:15:54.042Z,101027.81
2023-01-07T05:18:57.687Z,101033.47
2023-01-07T05:22:01.759Z,101021.78
2023-01-07T05:25:07.195Z,101021.50
2023-01-07T05:28:12.039Z,101018.13
2023-01-07T05:31:16.798Z,101016.88
2023-01-07T05:34:20.623Z,101007.31
2023-01-07T05:37:23.681Z,101015.59
2023-01-07T05:40:28.901Z,101013.56
2023-01-07T05:43:32.552Z,101013.34
2023-01-07T05:46:35.816Z,101001.09
2023-01-07T05:49:39.911Z,101008.72
2023-01-07T05:52:43.262Z,101010.19
2023-01-07T05:55:47.766Z,101007.53
2023-01-07T05:58:50.762Z,101003.34
2023-01-07T06:01:53.736Z,101015.34
2023-01-07T06:04:56.748Z,101006.56
2023-01-07T06:07:59.732Z,101011.56
2023-01-07T06:11:05.808Z,101015.00
2023-01-07T06:14:08.917Z,101010.91
2023-01-07T06:17:11.910Z,101009.91
2023-01-07T06:20:15.883Z,101007.09
2023-01-07T06:23:18.999Z,101008.34
2023-01-07T06:26:23.343Z,101006.72
2023-01-07T06:29:26.334Z,101012.81
2023-01-07T06:32:32.199Z,101017.91
2023-01-07T06:35:35.349Z,101009.31
2023-01-07T06:38:44.672Z,101005.69
2023-01-07T06:41:48.973Z,101017.69
2023-01-07T06:44:51.971Z,101010.25
2023-01-07T06:47:57.410Z,101017.88
2023-01-07T06:51:00.742Z,101011.78
2023-01-07T06:54:03.786Z,101011.50
2023-01-07T06:57:08.213Z,101012.31
2023-01-07T07:00:19.434Z,100998.13
2023-01-07T07:03:22.912Z,101005.88
2023-01-07T07:06:25.885Z,101002.50
2023-01-07T07:09:32.793Z,101005.88
2023-01-07T07:12:38.280Z,101010.75
2023-01-07T07:15:41.246Z,101016.84
2023-01-07T07:18:45.333Z,101013.94
2023-01-07T07:21:48.841Z,101015.53
2023-01-07T07:24:51.917Z,101008.78
2023-01-07T07:27:57.020Z,101016.00
2023-01-07T07:31:00.307Z,101015.84
2023-01-07T07:34:03.407Z,101015.69
2023-01-07T07:37:06.444Z,101014.69
2023-01-07T07:40:11.291Z,101016.22
2023-01-07T07:43:24.699Z,101020.34
2023-01-07T07:46:28.423Z,101027.06
2023-01-07T07:49:34.372Z,101023.63
2023-01-07T07:52:37.310Z,101020.84
2023-01-07T07:55:41.221Z,101024.28
2023-01-07T07:58:48.553Z,101024.06
2023-01-07T08:01:54.205Z,101022.31
2023-01-07T08:04:57.279Z,101024.28
2023-01-07T08:08:00.746Z,101018.66
2023-01-07T08:11:05.263Z,101015.22
2023-01-07T08:14:11.038Z,101023.66
2023-01-07T08:17:21.776Z,101023.66
2023-01-07T08:20:24.839Z,101014.81
2023-01-07T08:23:29.937Z,101009.50
2023-01-07T08:26:33.048Z,101005.81
2023-01-07T08:29:37.631Z,101010.69
2023-01-07T08:32:43.578Z,101007.00
2023-01-07T08:35:46.572Z,101002.41
2023-01-07T08:44:16.264Z,101009.72
2023-01-07T08:47:20.702Z,100997.69
2023-01-07T08:50:24.205Z,101002.53
2023-01-07T08:53:29.469Z,100987.50
2023-01-07T08:56:33.479Z,100988.91
2023-01-07T08:59:38.683Z,100980.81
2023-01-07T09:02:43.066Z,100991.66
2023-01-07T09:05:47.780Z,100990.69
2023-01-07T09:08:51.263Z,100988.25
2023-01-07T09:11:56.157Z,100990.84
2023-01-07T09:14:59.181Z,100991.75
2023-01-07T09:18:04.116Z,100991.59
2023-01-07T09:21:07.439Z,100992.25
2023-01-07T09:24:12.655Z,100994.78
2023-01-07T09:27:16.700Z,100994.50
2023-01-07T09:30:19.862Z,100994.34
2023-01-07T09:33:24.212Z,100983.31
2023-01-07T09:36:27.959Z,100990.00
2023-01-07T09:39:31.071Z,100988.00
2023-01-07T09:42:44.316Z,100986.97
2023-01-07T09:45:51.975Z,100988.72
2023-01-07T09:49:02.803Z,100985.84
2023-01-07T09:52:12.083Z,100989.31
2023-01-07T09:55:23.538Z,100985.63
2023-01-07T09:58:26.910Z,100980.09
2023-01-07T10:01:42.794Z,100979.97
2023-01-07T10:04:56.202Z,100977.03
2023-01-07T10:08:31.146Z,100979.28
2023-01-07T10:11:57.591Z,100975.59
2023-01-07T10:15:41.081Z,100972.91
2023-01-07T10:18:55.994Z,100962.69
2023-01-07T10:22:11.533Z,100963.94
2023-01-07T10:25:20.761Z,100961.81
2023-01-07T10:28:30.050Z,100952.94
2023-01-07T10:31:36.674Z,100948.66
2023-01-07T10:34:46.074Z,100935.41
2023-01-07T10:37:53.792Z,100937.09
2023-01-07T10:41:01.646Z,100929.19
2023-01-07T10:44:39.680Z,100922.63
2023-01-07T10:48:00.116Z,100918.00
2023-01-07T10:51:15.753Z,100916.50
2023-01-07T10:54:41.363Z,100920.22
2023-01-07T10:57:45.342Z,100907.34
2023-01-07T11:00:49.026Z,100903.34
2023-01-07T11:03:54.601Z,100901.66
2023-01-07T11:07:04.111Z,100897.84
2023-01-07T11:10:16.422Z,100892.00
2023-01-07T11:13:25.675Z,100887.25
2023-01-07T11:16:33.058Z,100885.97
2023-01-07T11:19:46.143Z,100885.13
2023-01-07T11:22:51.577Z,100881.41
2023-01-07T11:26:10.025Z,100882.88
2023-01-07T11:29:24.430Z,100883.09
2023-01-07T11:32:31.224Z,100880.44
2023-01-07T11:35:37.554Z,100875.59
2023-01-07T11:38:41.219Z,100881.41
2023-01-07T11:41:56.230Z,100882.91
2023-01-07T11:45:17.116Z,100888.84
2023-01-07T11:48:27.622Z,100892.81
2023-01-07T11:51:41.422Z,100894.81
2023-01-07T11:54:51.756Z,100893.88
2023-01-07T11:58:28.225Z,100897.22
2023-01-07T12:01:25.508Z,100899.44
2023-01-07T12:04:32.094Z,100899.34
2023-01-07T12:07:36.291Z,100900.28
2023-01-07T12:10:42.195Z,100895.47
2023-01-07T12:13:53.054Z,100898.59
2023-01-07T12:17:20.452Z,100903.19
2023-01-07T12:20:39.281Z,100915.28
2023-01-07T12:24:00.131Z,100918.44
2023-01-07T12:27:16.982Z,100931.94
2023-01-07T12:31:05.002Z,100929.22
2023-01-07T12:34:23.333Z,100935.47
2023-01-07T12:37:33.187Z,100936.31
2023-01-07T12:40:43.551Z,100945.47
2023-01-07T12:44:02.453Z,100950.66
2023-01-07T12:47:31.973Z,100947.31
2023-01-07T12:50:42.020Z,100945.47
2023-01-07T12:54:00.879Z,100939.84
2023-01-07T12:57:12.360Z,100934.44
2023-01-07T13:00:21.896Z,100940.56
2023-01-07T13:03:40.294Z,100931.53
2023-01-07T13:06:49.386Z,100930.28
2023-01-07T13:09:58.397Z,100928.63
2023-01-07T13:13:10.659Z,100920.69
2023-01-07T13:16:16.410Z,100930.69
2023-01-07T13:19:20.756Z,100931.63
2023-01-07T13:22:31.510Z,100930.09
2023-01-07T13:25:49.397Z,100933.41
2023-01-07T13:29:32.420Z,100926.09
2023-01-07T13:33:02.443Z,100918.81
2023-01-07T13:36:26.510Z,100921.88
2023-01-07T13:39:48.058Z,100915.06
2023-01-07T13:42:54.783Z,100915.28
2023-01-07T13:46:02.474Z,100915.66
2023-01-07T13:49:06.641Z,100909.03
2023-01-07T13:53:13.945Z,100903.56
2023-01-07T13:56:36.695Z,100896.41
2023-01-07T13:59:49.741Z,100893.81
2023-01-07T14:03:08.524Z,100902.28
2023-01-07T14:06:47.972Z,100885.38
2023-01-07T14:09:57.899Z,100887.25
2023-01-07T14:13:19.733Z,100883.28
2023-01-07T14:16:29.546Z,100883.00
2023-01-07T14:19:43.814Z,100882.88
2023-01-07T14:23:01.750Z,100881.28
2023-01-07T14:26:19.123Z,100877.53
2023-01-07T14:29:38.617Z,100874.50
2023-01-07T14:32:41.662Z,100862.63
2023-01-07T14:35:53.949Z,100865.63
2023-01-07T14:38:59.774Z,100866.13
2023-01-07T14:42:41.766Z,100857.84
2023-01-07T14:45:55.877Z,100847.31
2023-01-07T14:50:05.915Z,100855.22
2023-01-07T14:53:49.349Z,100845.44
2023-01-07T14:57:17.543Z,100843.94
2023-01-07T15:00:53.432Z,100838.31
2023-01-07T15:04:33.849Z,100832.66
2023-01-07T15:07:39.678Z,100820.31
2023-01-07T15:11:05.640Z,100824.69
2023-01-07T15:14:40.580Z,100824.34
2023-01-07T15:17:48.866Z,100824.50
2023-01-07T15:21:08.516Z,100819.78
2023-01-07T15:24:22.900Z,100813.94
2023-01-07T15:27:35.077Z,100814.09
2023-01-07T15:30:51.583Z,100809.75
2023-01-07T15:34:08.780Z,100803.94
2023-01-07T15:37:15.410Z,100801.88
2023-01-07T15:40:20.975Z,100790.56
2023-01-07T15:43:27.772Z,100789.84
2023-01-07T15:46:33.412Z,100803.56
2023-01-07T15:49:41.413Z,100788.63
2023-01-07T15:52:53.035Z,100784.06
2023-01-07T15:56:02.623Z,100779.66
2023-01-07T15:59:09.697Z,100784.84
2023-01-07T16:02:29.478Z,100780.75
2023-01-07T16:05:39.648Z,100784.19
2023-01-07T16:08:45.660Z,100782.78
2023-01-07T16:11:50.988Z,100777.38
2023-01-07T16:14:53.992Z,100775.56
2023-01-07T16:17:59.332Z,100770.16
2023-01-07T16:21:06.149Z,100773.69
2023-01-07T16:24:13.884Z,100768.31
2023-01-07T16:27:20.700Z,100770.63
2023-01-07T16:30:23.800Z,100769.81
2023-01-07T16:33:30.071Z,100772.66
2023-01-07T16:36:43.684Z,100768.38
2023-01-07T16:39:51.390Z,100770.59
2023-01-07T16:43:01.798Z,100772.81
2023-01-07T16:46:21.267Z,100761.59
2023-01-07T16:49:29.729Z,100760.75
2023-01-07T16:52:42.126Z,100761.41
2023-01-07T16:55:52.835Z,100768.28
2023-01-07T16:59:01.448Z,100771.59
2023-01-07T17:02:23.073Z,100767.88
2023-01-07T17:05:31.917Z,100772.16
2023-01-07T17:08:37.244Z,100763.97
2023-01-07T17:11:41.583Z,100774.34
2023-01-07T17:14:49.824Z,100766.38
2023-01-07T17:17:55.299Z,100761.19
2023-01-07T17:21:00.519Z,100763.06
2023-01-07T17:24:09.464Z,100754.22
2023-01-07T17:27:23.276Z,100753.41
2023-01-07T17:30:33.368Z,100749.84
2023-01-07T17:33:37.952Z,100760.25
2023-01-07T17:36:41.406Z,100759.31
2023-01-07T17:39:45.816Z,100748.00
2023-01-07T17:43:07.262Z,100743.94
2023-01-07T17:46:14.950Z,100746.72
2023-01-07T17:49:20.270Z,100739.69
2023-01-07T17:52:25.128Z,100733.63
2023-01-07T17:55:32.605Z,100737.81
2023-01-07T17:58:37.982Z,100732.44
2023-01-07T18:01:41.370Z,100735.84
2023-01-07T18:04:44.444Z,100730.72
2023-01-07T18:07:48.157Z,100724.63
2023-01-07T18:11:17.582Z,100717.56
2023-01-07T18:14:21.006Z,100722.53
2023-01-07T18:17:24.042Z,100720.69
2023-01-07T18:20:27.045Z,100715.22
2023-01-07T18:23:30.318Z,100712.50
2023-01-07T18:26:35.993Z,100722.91
2023-01-07T18:29:39.008Z,100718.63
2023-01-07T18:32:42.590Z,100710.84
2023-01-07T18:35:48.752Z,100714.16
2023-01-07T18:38:53.096Z,100708.97
2023-01-07T18:41:57.641Z,100713.88
2023-01-07T18:45:00.728Z,100706.25
2023-01-07T18:48:07.497Z,100708.97
2023-01-07T18:51:18.116Z,100708.31
2023-01-07T18:54:22.370Z,100711.84
2023-01-07T18:57:26.797Z,100692.31
2023-01-07T19:00:30.432Z,100690.44
2023-01-07T19:03:33.969Z,100681.19
2023-01-07T19:06:39.010Z,100670.91
2023-01-07T19:09:42.086Z,100676.91
2023-01-07T19:12:47.426Z,100667.34
2023-01-07T19:15:50.414Z,100664.88
2023-01-07T19:18:53.988Z,100662.78
2023-01-07T19:21:57.172Z,100661.94
2023-01-07T19:25:00.172Z,100662.78
2023-01-07T19:28:08.333Z,100660.19
2023-01-07T19:31:12.678Z,100664.25
2023-01-07T19:34:16.584Z,100659.88
2023-01-07T19:37:19.943Z,100654.69
2023-01-07T19:40:23.394Z,100651.47
2023-01-07T19:43:28.022Z,100643.47
2023-01-07T19:46:36.161Z,100649.72
2023-01-07T19:49:39.188Z,100633.28
2023-01-07T19:52:42.140Z,100641.81
2023-01-07T19:55:45.414Z,100636.59
2023-01-07T19:58:53.242Z,100644.41
2023-01-07T20:01:57.742Z,100647.09
2023-01-07T20:05:03.043Z,100642.22
2023-01-07T20:08:07.165Z,100643.88
2023-01-07T20:11:10.719Z,100633.59
2023-01-07T20:14:15.674Z,100636.19
2023-01-07T20:17:20.845Z,100632.00
2023-01-07T20:20:24.454Z,100630.34
2023-01-07T20:23:28.573Z,100627.03
2023-01-07T20:26:34.400Z,100621.28
2023-01-07T20:29:40.399Z,100630.94
2023-01-07T20:32:43.459Z,100630.03
2023-01-07T20:35:46.652Z,100630.94
2023-01-07T20:38:52.523Z,100628.44
2023-01-07T20:41:55.819Z,100629.28
2023-01-07T20:45:00.323Z,100624.06
2023-01-07T20:48:03.942Z,100626.69
2023-01-07T20:51:08.977Z,100621.59
2023-01-07T20:54:13.202Z,100612.31
2023-01-07T20:57:16.356Z,100610.56
2023-01-07T21:00:27.134Z,100606.19
2023-01-07T21:03:30.211Z,100601.94
2023-01-07T21:06:33.207Z,100601.09
2023-01-07T21:09:36.414Z,100602.03
2023-01-07T21:12:39.554Z,100597.91
2023-01-07T21:15:43.843Z,100591.00
2023-01-07T21:18:47.028Z,100590.19
2023-01-07T21:21:50.685Z,100573.16
2023-01-07T21:24:53.873Z,100566.28
2023-01-07T21:27:56.882Z,100566.38
2023-01-07T21:31:05.988Z,100563.97
2023-01-07T21:34:10.377Z,100558.78
2023-01-07T21:37:13.618Z,100563.97
2023-01-07T21:40:16.987Z,100559.81
2023-01-07T21:43:20.073Z,100556.28
2023-01-07T21:46:24.631Z,100559.81
2023-01-07T21:49:28.159Z,100557.34
2023-01-07T21:52:31.306Z,100554.81
2023-01-07T21:55:34.504Z,100554.81
2023-01-07T21:58:38.562Z,100557.53
2023-01-07T22:01:43.248Z,100565.19
2023-01-07T22:04:48.529Z,100553.78
2023-01-07T22:07:51.672Z,100544.44
2023-01-07T22:10:55.028Z,100544.53
2023-01-07T22:14:01.012Z,100546.31
2023-01-07T22:17:05.608Z,100548.06
2023-01-07T22:20:11.569Z,100542.03
2023-01-07T22:23:17.778Z,100529.25
2023-01-07T22:26:22.431Z,100532.59
2023-01-07T22:29:25.773Z,100537.78
2023-01-07T22:32:30.111Z,100535.28
2023-01-07T22:35:34.697Z,100525.22
2023-01-07T22:38:39.043Z,100516.59
2023-01-07T22:41:44.738Z,100501.22
2023-01-07T22:44:52.185Z,100503.91
2023-01-07T22:47:56.726Z,100499.75
2023-01-07T22:51:06.311Z,100493.59
2023-01-07T22:54:09.644Z,100500.78
2023-01-07T22:57:14.416Z,100496.53
2023-01-07T23:00:39.533Z,100502.63
2023-01-07T23:03:45.459Z,100491.41
2023-01-07T23:06:48.746Z,100487.47
2023-01-07T23:09:51.868Z,100490.34
2023-01-07T23:12:54.954Z,100485.25
2023-01-07T23:16:01.570Z,100493.25
2023-01-07T23:19:06.545Z,100485.38
2023-01-07T23:22:09.731Z,100475.09
2023-01-07T23:25:15.055Z,100479.34
2023-01-07T23:28:19.480Z,100468.16
2023-01-07T23:31:22.593Z,100468.22
2023-01-07T23:34:27.125Z,100467.69
2023-01-07T23:37:30.205Z,100465.84
2023-01-07T23:40:34.267Z,100459.53
2023-01-07T23:43:37.369Z,100460.66
2023-01-07T23:46:40.561Z,100445.28
2023-01-07T23:49:45.012Z,100445.38
2023-01-07T23:52:48.072Z,100441.97
2023-01-07T23:55:52.640Z,100437.84
2023-01-07T23:58:55.952Z,100445.94
